Time;durP1;ratioP1;P1;durP2;ratioP2;P2;SDS_P1;SDS_P2;PMS_P1;PMS_P2;Temp;Humidity;BMP_temperature;BMP_pressure;BME280_temperature;BME280_humidity;BME280_pressure;Samples;Min_cycle;Max_cycle;Signal;HPM_P1;HPM_P2
2023/04/29 00:01:03;;;;;;;11.45;9.30;;;7.80;99.90;;;;;;5034689;28;20469;-51
2023/04/29 00:03:31;;;;;;;13.68;9.13;;;7.80;99.90;;;;;;5034149;28;20029;-54
2023/04/29 00:06:00;;;;;;;11.77;8.77;;;7.70;99.90;;;;;;5029346;28;20021;-57
2023/04/29 00:08:26;;;;;;;11.73;8.10;;;7.70;99.90;;;;;;5036043;28;20028;-55
2023/04/29 00:10:51;;;;;;;8.90;7.60;;;7.70;99.90;;;;;;5029217;28;20029;-52
2023/04/29 00:13:17;;;;;;;11.38;8.88;;;7.70;99.90;;;;;;5027789;28;20064;-56
2023/04/29 00:15:43;;;;;;;9.40;7.68;;;7.70;99.90;;;;;;5036446;28;20036;-56
2023/04/29 00:18:09;;;;;;;13.45;9.05;;;7.60;99.90;;;;;;5032468;28;20036;-56
2023/04/29 00:20:36;;;;;;;13.70;8.35;;;7.60;99.90;;;;;;5039902;28;20018;-54
2023/04/29 00:23:02;;;;;;;13.90;8.57;;;7.60;99.90;;;;;;5023265;28;20025;-55
2023/04/29 00:25:28;;;;;;;13.48;8.60;;;7.60;99.90;;;;;;5038513;28;20032;-54
2023/04/29 00:27:53;;;;;;;12.00;8.73;;;7.60;99.90;;;;;;5021749;28;20022;-55
2023/04/29 00:30:19;;;;;;;12.77;8.10;;;7.60;99.90;;;;;;5035123;28;20360;-56
2023/04/29 00:32:45;;;;;;;13.88;9.15;;;7.60;99.90;;;;;;5030070;28;20053;-52
2023/04/29 00:35:11;;;;;;;11.85;8.65;;;7.60;99.90;;;;;;5012498;28;20021;-55
2023/04/29 00:37:36;;;;;;;9.80;8.60;;;7.50;99.90;;;;;;5033525;28;20052;-54
2023/04/29 00:40:03;;;;;;;13.52;8.38;;;7.50;99.90;;;;;;5029383;28;20026;-54
2023/04/29 00:42:32;;;;;;;11.88;9.50;;;7.50;99.90;;;;;;5010123;28;20026;-52
2023/04/29 00:44:58;;;;;;;10.23;8.65;;;7.50;99.90;;;;;;5028302;28;20022;-55
2023/04/29 00:47:24;;;;;;;15.90;9.45;;;7.40;99.90;;;;;;5035408;28;20021;-56
2023/04/29 00:49:50;;;;;;;11.73;9.13;;;7.40;99.90;;;;;;5029938;28;20025;-54
2023/04/29 00:52:16;;;;;;;11.02;9.13;;;7.40;99.90;;;;;;5030629;28;20483;-56
2023/04/29 00:54:43;;;;;;;14.73;9.65;;;7.40;99.90;;;;;;5036379;28;20029;-55
2023/04/29 00:57:09;;;;;;;13.32;9.73;;;7.30;99.90;;;;;;5025892;28;20030;-56
2023/04/29 00:59:35;;;;;;;13.68;10.00;;;7.30;99.90;;;;;;5034968;28;20044;-55
2023/04/29 01:02:04;;;;;;;12.55;9.98;;;7.40;99.90;;;;;;5025763;28;20088;-53
2023/04/29 01:04:30;;;;;;;15.00;10.15;;;7.30;99.90;;;;;;5034675;28;20601;-54
2023/04/29 01:07:05;;;;;;;13.95;11.13;;;7.30;99.90;;;;;;5033620;28;20041;-54
2023/04/29 01:09:52;;;;;;;17.33;10.85;;;7.30;99.90;;;;;;5032189;28;20121;-56
2023/04/29 01:12:35;;;;;;;15.88;10.98;;;7.30;99.90;;;;;;5024274;28;20040;-53
2023/04/29 01:15:21;;;;;;;13.32;10.32;;;7.30;99.90;;;;;;5028464;28;20067;-55
2023/04/29 01:17:57;;;;;;;15.43;12.93;;;7.30;99.90;;;;;;5028913;28;20025;-55
2023/04/29 01:20:24;;;;;;;16.20;12.38;;;7.30;99.90;;;;;;5039229;28;20025;-57
2023/04/29 01:22:50;;;;;;;17.70;12.02;;;7.30;99.90;;;;;;5031309;28;20105;-55
2023/04/29 01:25:16;;;;;;;19.42;13.90;;;7.30;99.90;;;;;;5034264;28;20021;-52
2023/04/29 01:28:07;;;;;;;17.42;13.77;;;7.30;99.90;;;;;;5026585;28;20026;-56
2023/04/29 01:30:56;;;;;;;18.08;13.38;;;7.30;99.90;;;;;;5033801;28;20059;-53
2023/04/29 01:33:39;;;;;;;18.38;13.82;;;7.20;99.90;;;;;;5022257;28;20403;-54
2023/04/29 01:36:21;;;;;;;21.85;14.57;;;7.20;99.90;;;;;;5028159;28;20028;-52
2023/04/29 01:39:05;;;;;;;20.05;13.43;;;7.20;99.90;;;;;;5033719;28;20021;-51
2023/04/29 01:41:50;;;;;;;17.98;13.15;;;7.20;99.90;;;;;;5031510;28;20029;-54
2023/04/29 01:44:22;;;;;;;20.05;12.73;;;7.20;99.90;;;;;;5023514;28;20033;-55
2023/04/29 01:46:52;;;;;;;21.58;13.48;;;7.20;99.90;;;;;;5031398;28;20031;-55
2023/04/29 01:49:23;;;;;;;19.23;13.85;;;7.20;99.90;;;;;;5033053;28;20426;-52
2023/04/29 01:51:49;;;;;;;15.55;12.40;;;7.20;99.90;;;;;;5030521;28;20076;-52
2023/04/29 01:54:15;;;;;;;17.10;13.23;;;7.20;99.90;;;;;;5029968;28;20053;-53
2023/04/29 01:56:40;;;;;;;17.83;13.10;;;7.20;99.90;;;;;;5027379;28;20036;-55
2023/04/29 01:59:07;;;;;;;17.95;13.15;;;7.20;99.90;;;;;;5025117;28;20534;-55
2023/04/29 02:01:32;;;;;;;16.23;13.65;;;7.20;99.90;;;;;;5030964;28;20044;-53
2023/04/29 02:03:58;;;;;;;20.35;14.02;;;7.20;99.90;;;;;;5030883;28;20029;-53
2023/04/29 02:06:24;;;;;;;18.88;13.70;;;7.20;99.90;;;;;;5026019;28;20166;-56
2023/04/29 02:08:50;;;;;;;16.85;12.32;;;7.20;99.90;;;;;;5030949;28;20025;-55
2023/04/29 02:11:15;;;;;;;19.00;13.75;;;7.20;99.90;;;;;;5031847;28;20034;-54
2023/04/29 02:13:41;;;;;;;19.17;13.55;;;7.20;99.90;;;;;;5030000;28;20284;-54
2023/04/29 02:16:12;;;;;;;15.80;12.70;;;7.30;99.90;;;;;;5031911;28;20069;-53
2023/04/29 02:18:38;;;;;;;17.98;12.68;;;7.20;99.90;;;;;;5029848;28;20030;-56
2023/04/29 02:21:04;;;;;;;18.65;12.75;;;7.20;99.90;;;;;;5030617;28;20021;-53
2023/04/29 02:23:30;;;;;;;20.40;14.07;;;7.20;99.90;;;;;;5013658;28;20316;-54
2023/04/29 02:25:56;;;;;;;18.67;13.25;;;7.20;99.90;;;;;;5028986;28;20025;-53
2023/04/29 02:28:24;;;;;;;20.98;13.55;;;7.20;99.90;;;;;;5027430;28;20033;-56
2023/04/29 02:30:50;;;;;;;19.58;13.25;;;7.10;99.90;;;;;;5031000;28;20044;-52
2023/04/29 02:33:17;;;;;;;19.90;13.90;;;7.10;99.90;;;;;;5031558;28;20026;-52
2023/04/29 02:35:43;;;;;;;17.65;13.05;;;7.10;99.90;;;;;;5030175;28;20423;-55
2023/04/29 02:38:09;;;;;;;17.00;13.00;;;7.10;99.90;;;;;;5030034;28;20025;-53
2023/04/29 02:40:39;;;;;;;17.48;14.27;;;7.10;99.90;;;;;;5030943;28;20018;-51
2023/04/29 02:43:05;;;;;;;18.63;14.27;;;7.20;99.90;;;;;;5030903;28;20384;-53
2023/04/29 02:45:30;;;;;;;19.00;13.77;;;7.10;99.90;;;;;;5031246;28;20028;-55
2023/04/29 02:47:56;;;;;;;19.25;14.05;;;7.20;99.90;;;;;;5030973;28;20033;-52
2023/04/29 02:50:22;;;;;;;18.17;13.55;;;7.10;99.90;;;;;;5030674;28;20029;-54
2023/04/29 02:52:48;;;;;;;18.73;14.75;;;7.10;99.90;;;;;;5030848;28;20384;-51
2023/04/29 02:55:13;;;;;;;17.15;13.80;;;7.10;99.90;;;;;;5011304;28;20541;-51
2023/04/29 02:57:40;;;;;;;17.05;13.63;;;7.20;99.90;;;;;;5030385;28;20108;-54
2023/04/29 03:00:06;;;;;;;18.30;13.23;;;7.20;99.90;;;;;;5029741;28;20037;-53
2023/04/29 03:02:31;;;;;;;18.17;13.07;;;7.20;99.90;;;;;;5012753;28;20025;-53
2023/04/29 03:04:57;;;;;;;17.08;13.63;;;7.10;99.90;;;;;;5030224;28;20103;-53
2023/04/29 03:07:23;;;;;;;16.17;12.82;;;7.20;99.90;;;;;;5029577;28;20060;-53
2023/04/29 03:09:48;;;;;;;15.13;12.23;;;7.20;99.90;;;;;;5029893;28;20021;-55
2023/04/29 03:12:15;;;;;;;16.13;13.23;;;7.20;99.90;;;;;;5030434;28;20088;-53
2023/04/29 03:14:41;;;;;;;18.30;13.73;;;7.20;99.90;;;;;;5030426;28;20503;-55
2023/04/29 03:17:07;;;;;;;17.73;12.73;;;7.20;99.90;;;;;;5030208;28;20060;-55
2023/04/29 03:19:32;;;;;;;16.83;12.18;;;7.20;99.90;;;;;;5029698;28;20037;-54
2023/04/29 03:21:58;;;;;;;19.70;13.85;;;7.20;99.90;;;;;;5028683;28;20035;-53
2023/04/29 03:24:23;;;;;;;20.05;13.70;;;7.20;99.90;;;;;;5024192;28;20068;-56
2023/04/29 03:26:49;;;;;;;17.77;12.93;;;7.20;99.90;;;;;;5029513;28;20547;-54
2023/04/29 03:29:14;;;;;;;17.00;13.15;;;7.20;99.90;;;;;;5030001;28;20038;-55
2023/04/29 03:31:40;;;;;;;19.98;13.70;;;7.20;99.90;;;;;;5011775;28;20049;-53
2023/04/29 03:34:06;;;;;;;18.00;13.68;;;7.20;99.90;;;;;;5026243;28;20049;-52
2023/04/29 03:36:31;;;;;;;17.80;12.98;;;7.20;99.90;;;;;;5029793;28;20030;-53
2023/04/29 03:38:57;;;;;;;18.85;13.52;;;7.20;99.90;;;;;;5029813;28;20079;-55
2023/04/29 03:41:23;;;;;;;18.70;13.80;;;7.20;99.90;;;;;;5029948;28;20451;-51
2023/04/29 03:43:49;;;;;;;17.73;13.07;;;7.20;99.90;;;;;;5029872;28;20092;-54
2023/04/29 03:46:14;;;;;;;16.33;13.27;;;7.10;99.90;;;;;;5030001;28;20071;-52
2023/04/29 03:48:40;;;;;;;17.95;13.48;;;7.10;99.90;;;;;;5027953;28;20018;-54
2023/04/29 03:51:05;;;;;;;18.55;14.02;;;7.10;99.90;;;;;;5029887;28;20025;-54
2023/04/29 03:53:31;;;;;;;19.52;14.27;;;7.10;99.90;;;;;;5029955;28;20021;-51
2023/04/29 03:55:57;;;;;;;18.30;14.90;;;7.10;99.90;;;;;;5029102;28;20041;-53
2023/04/29 03:58:23;;;;;;;17.27;14.38;;;7.10;99.90;;;;;;5010935;28;20033;-56
2023/04/29 04:00:49;;;;;;;18.67;14.30;;;7.10;99.90;;;;;;5028818;28;20036;-52
2023/04/29 04:03:14;;;;;;;16.02;13.50;;;7.00;99.90;;;;;;5029033;28;20025;-56
2023/04/29 04:05:40;;;;;;;19.77;15.07;;;7.10;99.90;;;;;;5028785;28;20021;-52
2023/04/29 04:08:05;;;;;;;20.65;14.07;;;7.10;99.90;;;;;;5028916;28;20055;-54
2023/04/29 04:10:31;;;;;;;18.30;13.60;;;7.10;99.90;;;;;;5029170;28;20028;-52
2023/04/29 04:12:57;;;;;;;15.88;13.35;;;7.10;99.90;;;;;;5028933;28;20083;-54
2023/04/29 04:15:22;;;;;;;19.85;15.18;;;7.10;99.90;;;;;;5028778;28;20071;-52
2023/04/29 04:17:48;;;;;;;19.90;14.57;;;7.10;99.90;;;;;;5028204;28;20030;-51
2023/04/29 04:20:14;;;;;;;22.48;15.20;;;7.10;99.90;;;;;;5028479;28;20080;-53
2023/04/29 04:22:40;;;;;;;20.23;14.43;;;7.10;99.90;;;;;;5026000;28;20028;-51
2023/04/29 04:25:06;;;;;;;19.17;14.18;;;7.10;99.90;;;;;;5027309;28;20026;-55
2023/04/29 04:27:31;;;;;;;19.95;15.07;;;7.10;99.90;;;;;;5027060;28;20021;-54
2023/04/29 04:29:57;;;;;;;20.02;15.00;;;7.10;99.90;;;;;;5028780;28;20094;-54
2023/04/29 04:32:23;;;;;;;22.40;15.15;;;7.10;99.90;;;;;;5028134;28;20036;-54
2023/04/29 04:34:49;;;;;;;20.90;13.50;;;7.00;99.90;;;;;;5028625;28;20044;-52
2023/04/29 04:37:15;;;;;;;20.17;14.48;;;7.10;99.90;;;;;;5026353;28;20025;-52
2023/04/29 04:39:41;;;;;;;18.70;14.35;;;7.00;99.90;;;;;;5026180;28;20021;-53
2023/04/29 04:42:06;;;;;;;17.30;13.35;;;7.00;99.90;;;;;;5028464;28;20538;-51
2023/04/29 04:44:32;;;;;;;15.23;13.15;;;7.00;99.90;;;;;;5028519;28;20032;-53
2023/04/29 04:47:00;;;;;;;18.45;13.90;;;7.00;99.90;;;;;;5027783;28;20175;-52
2023/04/29 04:49:26;;;;;;;21.90;13.45;;;6.90;99.90;;;;;;5018847;28;20021;-55
2023/04/29 04:51:52;;;;;;;20.65;13.80;;;6.90;99.90;;;;;;5027589;28;20145;-52
2023/04/29 04:54:18;;;;;;;18.90;13.43;;;6.90;99.90;;;;;;5028131;28;20025;-53
2023/04/29 04:56:43;;;;;;;16.77;12.57;;;6.80;99.90;;;;;;5024638;28;20033;-55
2023/04/29 04:59:09;;;;;;;18.38;12.95;;;6.80;99.90;;;;;;5028084;28;20507;-56
2023/04/29 05:01:35;;;;;;;21.65;12.32;;;6.80;99.90;;;;;;5023334;28;20031;-55
2023/04/29 05:04:01;;;;;;;15.20;11.35;;;6.80;99.90;;;;;;5027358;28;20026;-55
2023/04/29 05:06:27;;;;;;;17.42;12.45;;;6.80;99.90;;;;;;5027833;28;20427;-56
2023/04/29 05:08:53;;;;;;;16.27;12.00;;;6.80;99.90;;;;;;5027308;28;20079;-56
2023/04/29 05:11:20;;;;;;;20.05;12.35;;;6.80;99.90;;;;;;5028081;28;20104;-53
2023/04/29 05:13:46;;;;;;;16.75;12.07;;;6.80;99.90;;;;;;5027919;28;20033;-55
2023/04/29 05:16:12;;;;;;;19.95;12.38;;;6.80;99.90;;;;;;5027569;28;20029;-55
2023/04/29 05:18:38;;;;;;;18.13;11.60;;;6.80;99.90;;;;;;5027145;28;20044;-52
2023/04/29 05:21:04;;;;;;;18.35;11.90;;;6.80;99.90;;;;;;5028267;28;20411;-53
2023/04/29 05:23:30;;;;;;;16.08;11.10;;;6.80;99.90;;;;;;5027656;28;20022;-51
2023/04/29 05:25:55;;;;;;;14.50;11.15;;;6.90;99.90;;;;;;5022128;28;20033;-51
2023/04/29 05:28:21;;;;;;;16.95;11.38;;;6.90;99.90;;;;;;5027691;28;20025;-52
2023/04/29 05:30:50;;;;;;;16.67;10.63;;;6.90;99.90;;;;;;5027232;28;20037;-54
2023/04/29 05:33:15;;;;;;;12.38;10.13;;;6.90;99.90;;;;;;5016002;28;20029;-53
2023/04/29 05:35:41;;;;;;;14.52;9.85;;;6.90;99.90;;;;;;5034478;28;20519;-54
2023/04/29 05:38:06;;;;;;;15.65;11.15;;;7.00;99.90;;;;;;5031562;28;20033;-53
2023/04/29 05:40:32;;;;;;;19.02;10.90;;;7.00;99.90;;;;;;5028878;28;20152;-54
2023/04/29 05:42:57;;;;;;;15.60;11.13;;;7.00;99.90;;;;;;5034161;28;20232;-55
2023/04/29 05:45:23;;;;;;;12.90;9.60;;;7.10;99.90;;;;;;5032853;28;20506;-53
2023/04/29 05:47:49;;;;;;;16.63;9.38;;;7.10;99.90;;;;;;5015469;28;20024;-55
2023/04/29 05:50:14;;;;;;;13.13;8.82;;;7.10;99.90;;;;;;5034059;28;20629;-53
2023/04/29 05:52:40;;;;;;;14.65;9.20;;;7.20;99.90;;;;;;5016636;28;20428;-55
2023/04/29 05:55:06;;;;;;;17.65;9.95;;;7.20;99.90;;;;;;5033970;28;20092;-56
2023/04/29 05:57:31;;;;;;;19.00;10.68;;;7.30;99.90;;;;;;5033858;28;20030;-55
2023/04/29 05:59:58;;;;;;;15.90;10.88;;;7.30;99.90;;;;;;5033245;28;20512;-52
2023/04/29 06:02:24;;;;;;;17.85;9.93;;;7.40;99.90;;;;;;5033492;28;20033;-53
2023/04/29 06:04:50;;;;;;;14.85;9.20;;;7.50;99.90;;;;;;5030111;28;20029;-52
2023/04/29 06:07:16;;;;;;;19.10;10.57;;;7.60;99.90;;;;;;5032721;28;20610;-51
2023/04/29 06:09:42;;;;;;;13.98;10.13;;;7.70;99.90;;;;;;5034017;28;20095;-54
2023/04/29 06:12:08;;;;;;;14.65;10.35;;;7.70;99.90;;;;;;5032079;28;20022;-52
2023/04/29 06:14:34;;;;;;;17.35;10.05;;;7.80;99.90;;;;;;5031488;28;20036;-51
2023/04/29 06:17:00;;;;;;;11.48;9.43;;;7.90;99.90;;;;;;5033500;28;20021;-53
2023/04/29 06:19:26;;;;;;;13.45;9.27;;;8.10;99.90;;;;;;5034109;28;20034;-52
2023/04/29 06:21:52;;;;;;;13.02;10.35;;;8.20;99.90;;;;;;5033938;28;20026;-52
2023/04/29 06:24:17;;;;;;;14.77;9.18;;;8.30;99.90;;;;;;5034080;28;20111;-55
2023/04/29 06:26:43;;;;;;;13.20;9.80;;;8.40;99.90;;;;;;5034193;28;20022;-52
2023/04/29 06:29:09;;;;;;;11.40;8.68;;;8.50;99.90;;;;;;5033580;28;20100;-51
2023/04/29 06:31:34;;;;;;;19.05;9.45;;;8.60;99.90;;;;;;5033345;28;20033;-54
2023/04/29 06:34:00;;;;;;;17.10;9.52;;;8.70;99.90;;;;;;5015431;28;20033;-50
2023/04/29 06:36:26;;;;;;;14.93;8.07;;;8.80;99.90;;;;;;5033656;28;20021;-52
2023/04/29 06:38:51;;;;;;;14.30;8.25;;;8.80;99.90;;;;;;5056302;23;20444;-60
2023/04/29 06:41:17;;;;;;;14.68;8.52;;;8.90;99.90;;;;;;5030865;28;20040;-56
2023/04/29 06:43:43;;;;;;;12.02;7.93;;;8.90;99.90;;;;;;5028473;28;20113;-58
2023/04/29 06:46:09;;;;;;;11.00;7.38;;;8.80;99.90;;;;;;5009135;28;20018;-58
2023/04/29 06:48:35;;;;;;;13.95;8.45;;;8.70;99.90;;;;;;5028938;28;20025;-59
2023/04/29 06:51:01;;;;;;;10.20;7.35;;;8.90;99.90;;;;;;5029854;28;20101;-59
2023/04/29 06:53:26;;;;;;;12.38;7.97;;;9.00;99.90;;;;;;5030638;28;20022;-57
2023/04/29 06:55:52;;;;;;;11.55;7.40;;;9.00;99.90;;;;;;5028477;28;20471;-58
2023/04/29 06:58:18;;;;;;;10.80;6.38;;;9.00;99.90;;;;;;5030484;28;20056;-59
2023/04/29 07:00:45;;;;;;;12.73;7.10;;;9.10;99.90;;;;;;5028420;28;20111;-56
2023/04/29 07:03:11;;;;;;;11.93;7.50;;;9.00;99.90;;;;;;5030211;28;20018;-57
2023/04/29 07:05:40;;;;;;;10.27;6.93;;;9.00;99.90;;;;;;5027642;28;20571;-58
2023/04/29 07:08:07;;;;;;;9.77;6.60;;;9.10;99.90;;;;;;5028809;28;20505;-59
2023/04/29 07:10:33;;;;;;;9.52;6.60;;;9.30;99.90;;;;;;5024724;28;20096;-56
2023/04/29 07:12:59;;;;;;;9.32;5.70;;;9.40;99.90;;;;;;5029902;28;20169;-58
2023/04/29 07:15:26;;;;;;;13.40;7.10;;;9.60;99.90;;;;;;5026161;28;20017;-58
2023/04/29 07:17:52;;;;;;;11.52;6.60;;;9.90;99.90;;;;;;5029418;28;20032;-58
2023/04/29 07:20:18;;;;;;;8.60;5.85;;;9.90;99.90;;;;;;5006989;28;20025;-58
2023/04/29 07:22:43;;;;;;;10.40;6.95;;;9.90;99.90;;;;;;5029158;28;20021;-58
2023/04/29 07:25:09;;;;;;;8.52;6.10;;;10.00;99.90;;;;;;5028958;28;20025;-60
2023/04/29 07:27:36;;;;;;;8.43;5.72;;;10.10;99.90;;;;;;5030003;28;20021;-59
2023/04/29 07:30:03;;;;;;;12.05;7.43;;;10.40;99.90;;;;;;5029264;28;20059;-60
2023/04/29 07:32:30;;;;;;;7.88;6.15;;;10.70;99.90;;;;;;5029453;28;20029;-59
2023/04/29 07:34:56;;;;;;;14.63;6.55;;;10.80;99.90;;;;;;5023595;28;20105;-58
2023/04/29 07:37:22;;;;;;;6.78;5.88;;;10.70;99.90;;;;;;5029254;28;20037;-59
2023/04/29 07:39:48;;;;;;;6.97;5.68;;;10.80;99.90;;;;;;5010918;28;20160;-59
2023/04/29 07:42:13;;;;;;;9.82;6.90;;;10.90;99.90;;;;;;5029687;28;20045;-57
2023/04/29 07:44:39;;;;;;;9.55;5.30;;;11.10;99.90;;;;;;5025151;28;20025;-57
2023/04/29 07:47:05;;;;;;;7.13;4.78;;;11.10;99.90;;;;;;5028563;28;20053;-56
2023/04/29 07:49:30;;;;;;;10.30;6.35;;;11.20;99.90;;;;;;5025381;28;20026;-59
2023/04/29 07:51:56;;;;;;;7.40;5.65;;;11.30;99.90;;;;;;5027437;28;20029;-58
2023/04/29 07:54:22;;;;;;;7.95;5.28;;;11.40;99.90;;;;;;5028900;28;20470;-58
2023/04/29 07:56:48;;;;;;;7.65;5.53;;;11.40;99.90;;;;;;5028794;28;20021;-57
2023/04/29 07:59:14;;;;;;;10.45;5.95;;;11.60;99.90;;;;;;5024199;28;20045;-59
2023/04/29 08:01:41;;;;;;;7.38;5.28;;;11.80;99.90;;;;;;5028544;28;20152;-56
2023/04/29 08:04:06;;;;;;;9.43;5.65;;;11.80;99.90;;;;;;5028015;28;20069;-56
2023/04/29 08:06:33;;;;;;;8.05;5.63;;;11.80;99.90;;;;;;5028898;28;20041;-59
2023/04/29 08:08:59;;;;;;;8.07;5.53;;;11.90;99.90;;;;;;5028350;28;20025;-58
2023/04/29 08:11:26;;;;;;;8.38;5.18;;;11.90;99.90;;;;;;5029717;28;20025;-60
2023/04/29 08:13:52;;;;;;;7.00;5.15;;;12.00;99.90;;;;;;5028590;28;20482;-58
2023/04/29 08:16:18;;;;;;;6.88;5.00;;;12.10;99.90;;;;;;5027508;28;20025;-58
2023/04/29 08:18:43;;;;;;;7.55;5.03;;;12.20;99.90;;;;;;5010497;28;20034;-59
2023/04/29 08:21:11;;;;;;;6.30;5.50;;;12.20;99.90;;;;;;5029159;28;20103;-59
2023/04/29 08:23:37;;;;;;;10.10;5.20;;;12.20;99.90;;;;;;5026556;28;20026;-59
2023/04/29 08:26:03;;;;;;;5.97;5.07;;;12.20;99.90;;;;;;5028544;28;20013;-58
2023/04/29 08:28:29;;;;;;;7.93;5.65;;;12.30;99.90;;;;;;5025574;28;20104;-56
2023/04/29 08:30:55;;;;;;;7.97;5.38;;;12.50;99.90;;;;;;5027804;28;20488;-59
2023/04/29 08:33:21;;;;;;;10.10;5.82;;;12.80;99.90;;;;;;5025812;28;20021;-59
2023/04/29 08:35:47;;;;;;;9.50;6.18;;;12.90;99.90;;;;;;5023083;28;20030;-59
2023/04/29 08:38:12;;;;;;;9.15;5.72;;;12.90;99.90;;;;;;5028320;28;20033;-59
2023/04/29 08:40:44;;;;;;;8.27;5.85;;;12.90;99.90;;;;;;5028210;28;20399;-57
2023/04/29 08:43:11;;;;;;;7.70;5.35;;;13.00;99.90;;;;;;5028439;28;20604;-59
2023/04/29 08:45:38;;;;;;;7.78;5.82;;;13.10;99.90;;;;;;5028218;28;20052;-58
2023/04/29 08:48:05;;;;;;;7.15;6.10;;;13.30;99.90;;;;;;5028028;28;20036;-58
2023/04/29 08:50:38;;;;;;;9.25;6.63;;;13.20;99.90;;;;;;5027749;28;20496;-58
2023/04/29 08:53:06;;;;;;;8.13;5.85;;;13.40;99.90;;;;;;5028229;28;20094;-59
2023/04/29 08:55:34;;;;;;;8.70;6.35;;;13.30;99.90;;;;;;5028692;28;20028;-59
2023/04/29 08:58:01;;;;;;;7.07;5.45;;;13.50;99.90;;;;;;5027653;28;20052;-59
2023/04/29 09:00:29;;;;;;;10.15;6.40;;;13.50;99.90;;;;;;5025924;28;20026;-59
2023/04/29 09:02:56;;;;;;;6.75;5.25;;;13.60;99.90;;;;;;5028074;28;20028;-59
2023/04/29 09:05:24;;;;;;;7.75;5.45;;;13.80;99.90;;;;;;5028163;28;20693;-58
2023/04/29 09:07:51;;;;;;;10.20;6.38;;;13.90;99.90;;;;;;5026997;28;20105;-59
2023/04/29 09:10:17;;;;;;;8.85;5.75;;;14.20;99.90;;;;;;5025519;28;20036;-59
2023/04/29 09:12:43;;;;;;;8.43;5.10;;;14.20;99.90;;;;;;5021528;28;20094;-59
2023/04/29 09:15:10;;;;;;;8.50;6.10;;;14.20;99.90;;;;;;5023457;28;20033;-58
2023/04/29 09:17:44;;;;;;;9.13;6.05;;;14.30;99.90;;;;;;5027649;28;20021;-59
2023/04/29 09:20:19;;;;;;;6.70;5.43;;;14.50;99.90;;;;;;5027704;28;20535;-60
2023/04/29 09:23:00;;;;;;;8.73;6.03;;;14.40;99.90;;;;;;5023650;28;20033;-59
2023/04/29 09:25:26;;;;;;;8.48;5.60;;;14.30;99.90;;;;;;5024023;28;20017;-59
2023/04/29 09:27:52;;;;;;;6.38;5.05;;;14.30;99.90;;;;;;5028049;28;20021;-59
2023/04/29 09:30:18;;;;;;;8.13;5.65;;;14.20;99.90;;;;;;5027097;28;20030;-58
2023/04/29 09:32:44;;;;;;;8.73;5.25;;;14.20;99.90;;;;;;5027236;28;20028;-58
2023/04/29 09:35:24;;;;;;;5.65;5.05;;;14.30;99.90;;;;;;5028758;28;20025;-59
2023/04/29 09:37:53;;;;;;;7.28;5.13;;;14.00;99.90;;;;;;5007477;28;20025;-58
2023/04/29 09:40:31;;;;;;;7.93;4.68;;;14.10;99.90;;;;;;5027468;28;20029;-59
2023/04/29 09:42:58;;;;;;;4.60;4.20;;;14.10;99.90;;;;;;5022642;28;20078;-58
2023/04/29 09:45:38;;;;;;;6.78;4.65;;;14.40;99.90;;;;;;5023494;28;20029;-59
2023/04/29 09:48:05;;;;;;;6.72;4.93;;;14.60;99.90;;;;;;5025954;28;20064;-60
2023/04/29 09:50:37;;;;;;;5.85;4.30;;;14.60;99.90;;;;;;5025679;28;20025;-59
2023/04/29 09:53:05;;;;;;;8.02;4.75;;;14.40;99.90;;;;;;5026101;28;20041;-59
2023/04/29 09:55:31;;;;;;;8.63;5.63;;;14.30;99.90;;;;;;5026394;28;20480;-58
2023/04/29 09:57:57;;;;;;;8.82;4.93;;;14.30;99.90;;;;;;5026561;28;20028;-59
2023/04/29 10:00:24;;;;;;;5.35;4.78;;;14.50;99.90;;;;;;5026545;28;20434;-59
2023/04/29 10:02:52;;;;;;;5.85;4.85;;;14.50;99.90;;;;;;5022967;28;20018;-58
2023/04/29 10:05:20;;;;;;;8.73;5.38;;;14.20;99.90;;;;;;5027348;28;20101;-59
2023/04/29 10:07:50;;;;;;;7.45;5.00;;;14.40;99.90;;;;;;5027162;28;20100;-57
2023/04/29 10:10:17;;;;;;;9.73;5.85;;;14.50;99.90;;;;;;5025066;28;20112;-59
2023/04/29 10:12:43;;;;;;;6.53;5.05;;;14.40;99.90;;;;;;5026709;28;20025;-58
2023/04/29 10:15:35;;;;;;;7.57;4.50;;;14.30;99.90;;;;;;5026936;28;20040;-58
2023/04/29 10:18:11;;;;;;;7.25;5.53;;;14.30;99.90;;;;;;5019826;28;20025;-56
2023/04/29 10:20:39;;;;;;;;;;;14.40;99.90;;;;;;5029115;28;20075;-58
2023/04/29 10:23:06;;;;;;;5.63;5.10;;;14.50;99.90;;;;;;5027856;28;19958;-59
2023/04/29 10:25:34;;;;;;;6.30;5.25;;;14.60;99.90;;;;;;5027051;28;20023;-59
2023/04/29 10:28:03;;;;;;;5.22;4.72;;;14.70;99.90;;;;;;5007593;28;20022;-57
2023/04/29 10:30:29;;;;;;;9.55;5.63;;;14.60;99.90;;;;;;5030309;28;20026;-59
2023/04/29 10:32:57;;;;;;;8.85;5.18;;;14.40;99.90;;;;;;5030720;28;20112;-57
2023/04/29 10:35:24;;;;;;;6.28;5.05;;;14.40;99.90;;;;;;5030753;28;20123;-58
2023/04/29 10:37:51;;;;;;;7.82;5.20;;;14.50;99.90;;;;;;5030121;28;20156;-59
2023/04/29 10:40:20;;;;;;;6.70;4.65;;;14.70;99.90;;;;;;5023282;28;20025;-59
2023/04/29 10:42:51;;;;;;;9.50;5.53;;;14.80;99.90;;;;;;5030759;28;20044;-58
2023/04/29 10:45:30;;;;;;;9.63;5.40;;;14.90;99.90;;;;;;5022872;28;20032;-58
2023/04/29 10:48:01;;;;;;;7.50;4.95;;;15.00;99.20;;;;;;5030082;28;20148;-58
2023/04/29 10:50:46;;;;;;;7.07;4.90;;;15.10;99.00;;;;;;5030632;28;20025;-59
2023/04/29 10:53:15;;;;;;;6.35;5.13;;;15.10;97.90;;;;;;5030138;28;20056;-59
2023/04/29 10:55:45;;;;;;;6.07;5.47;;;15.00;98.40;;;;;;5030811;28;20387;-57
2023/04/29 10:58:36;;;;;;;8.38;5.82;;;14.70;99.00;;;;;;5029322;28;20541;-59
2023/04/29 11:01:02;;;;;;;6.90;5.30;;;14.60;99.90;;;;;;5029625;28;20037;-58
2023/04/29 11:03:57;;;;;;;6.93;5.80;;;14.70;99.90;;;;;;5030469;28;20555;-55
2023/04/29 11:06:42;;;;;;;7.57;5.72;;;14.70;99.90;;;;;;5024036;28;20022;-57
2023/04/29 11:09:12;;;;;;;9.55;6.18;;;14.80;99.90;;;;;;5029374;28;20033;-58
2023/04/29 11:11:52;;;;;;;6.03;5.10;;;14.80;99.90;;;;;;5029987;28;20064;-59
2023/04/29 11:14:28;;;;;;;6.93;5.50;;;14.80;99.90;;;;;;5022427;28;20550;-57
2023/04/29 11:16:59;;;;;;;6.05;5.45;;;14.90;99.90;;;;;;5029485;28;20029;-59
2023/04/29 11:19:35;;;;;;;9.10;5.63;;;14.90;99.90;;;;;;5024514;28;20525;-58
2023/04/29 11:22:17;;;;;;;6.68;5.50;;;14.70;99.90;;;;;;5029542;28;20041;-58
2023/04/29 11:25:12;;;;;;;9.43;6.25;;;14.40;99.90;;;;;;5027381;28;20037;-57
2023/04/29 11:27:40;;;;;;;7.88;5.78;;;14.40;99.90;;;;;;5006557;28;20033;-59
2023/04/29 11:30:06;;;;;;;6.90;5.70;;;14.50;99.90;;;;;;5026104;28;20530;-58
2023/04/29 11:32:37;;;;;;;6.18;5.18;;;14.70;99.90;;;;;;5029429;28;20159;-58
2023/04/29 11:35:14;;;;;;;8.23;4.75;;;14.70;99.20;;;;;;5029422;28;20196;-56
2023/04/29 11:37:41;;;;;;;6.97;4.68;;;14.60;99.90;;;;;;5028876;28;20093;-55
2023/04/29 11:40:08;;;;;;;8.35;5.22;;;14.70;99.80;;;;;;5029194;28;20041;-59
2023/04/29 11:42:44;;;;;;;6.63;4.30;;;14.90;99.90;;;;;;5029538;28;20021;-59
2023/04/29 11:45:11;;;;;;;9.38;4.93;;;15.10;97.60;;;;;;4995852;28;20033;-59
2023/04/29 11:47:41;;;;;;;5.13;4.20;;;15.10;98.60;;;;;;5027480;28;20462;-57
2023/04/29 11:50:09;;;;;;;7.22;4.30;;;15.40;99.90;;;;;;5026455;28;20030;-58
2023/04/29 11:52:36;;;;;;;6.95;4.45;;;15.60;98.30;;;;;;5028498;28;20013;-61
2023/04/29 11:55:03;;;;;;;5.82;4.82;;;15.70;98.90;;;;;;5027547;28;20021;-59
2023/04/29 11:57:29;;;;;;;6.53;4.22;;;15.70;99.90;;;;;;5028549;28;20048;-59
2023/04/29 11:59:56;;;;;;;4.75;4.03;;;15.80;98.80;;;;;;5028084;28;20056;-58
2023/04/29 12:02:27;;;;;;;5.88;4.90;;;15.80;98.00;;;;;;5028613;28;20453;-54
2023/04/29 12:04:53;;;;;;;5.65;4.40;;;15.60;97.00;;;;;;5028688;28;20546;-58
2023/04/29 12:07:18;;;;;;;5.25;4.78;;;15.40;98.60;;;;;;5028971;28;20021;-59
2023/04/29 12:09:45;;;;;;;5.18;4.20;;;15.30;99.30;;;;;;5011191;28;20036;-57
2023/04/29 12:12:12;;;;;;;5.75;4.32;;;15.30;98.90;;;;;;5028813;28;20099;-58
2023/04/29 12:14:40;;;;;;;5.15;4.65;;;15.30;98.90;;;;;;5028941;28;20128;-56
2023/04/29 12:17:06;;;;;;;5.13;4.43;;;15.50;98.80;;;;;;5028937;28;20033;-55
2023/04/29 12:19:32;;;;;;;6.40;4.30;;;15.50;97.90;;;;;;5028695;28;20052;-56
2023/04/29 12:22:02;;;;;;;5.38;4.20;;;15.40;98.10;;;;;;5026985;28;20642;-57
2023/04/29 12:24:28;;;;;;;3.92;3.40;;;15.30;97.10;;;;;;5011066;28;20029;-56
2023/04/29 12:26:58;;;;;;;4.05;3.70;;;15.30;96.50;;;;;;5028074;28;20030;-58
2023/04/29 12:29:25;;;;;;;3.25;2.95;;;15.30;96.00;;;;;;5010857;28;20049;-52
2023/04/29 12:31:51;;;;;;;4.25;3.08;;;15.40;96.90;;;;;;5027110;28;20124;-58
2023/04/29 12:34:23;;;;;;;5.03;3.50;;;15.60;96.50;;;;;;5010903;28;20082;-53
2023/04/29 12:36:49;;;;;;;5.10;3.63;;;15.70;95.50;;;;;;5028336;28;20021;-59
2023/04/29 12:41:42;;;;;;;5.88;3.25;;;15.90;95.60;;;;;;5006727;28;20041;-58
2023/04/29 12:44:11;;;;;;;5.55;3.20;;;16.00;94.00;;;;;;5008165;28;20030;-61
2023/04/29 12:46:38;;;;;;;3.85;3.08;;;15.90;94.70;;;;;;4991376;28;20041;-61
2023/04/29 12:49:04;;;;;;;3.67;3.30;;;15.70;95.00;;;;;;5001961;28;20100;-60